createdAt,value
2024-02-02T00:00:22.405Z,73.48
2024-02-02T00:04:06.746Z,73.53
2024-02-02T00:07:11.152Z,73.51
2024-02-02T00:10:15.690Z,73.41
2024-02-02T00:13:20.065Z,73.33
2024-02-02T00:16:24.260Z,73.17
2024-02-02T00:19:28.785Z,72.89
2024-02-02T00:22:33.115Z,73.00
2024-02-02T00:25:37.946Z,72.68
2024-02-02T00:28:42.375Z,72.64
2024-02-02T00:31:46.589Z,72.61
2024-02-02T00:34:51.047Z,72.26
2024-02-02T00:37:55.625Z,72.15
2024-02-02T00:41:00.087Z,71.75
2024-02-02T00:44:05.515Z,71.27
2024-02-02T00:47:09.751Z,70.81
2024-02-02T00:50:14.106Z,70.40
2024-02-02T00:53:19.111Z,70.08
2024-02-02T00:56:25.867Z,69.91
2024-02-02T00:59:30.421Z,70.20
2024-02-02T01:02:34.746Z,69.83
2024-02-02T01:05:39.033Z,69.82
2024-02-02T01:08:43.383Z,69.61
2024-02-02T01:11:49.537Z,69.20
2024-02-02T01:14:54.183Z,69.66
2024-02-02T01:17:58.750Z,69.71
2024-02-02T01:21:03.499Z,69.73
2024-02-02T01:24:07.982Z,69.76
2024-02-02T01:27:12.314Z,69.77
2024-02-02T01:30:17.917Z,70.01
2024-02-02T01:33:22.423Z,69.93
2024-02-02T01:36:27.038Z,69.95
2024-02-02T01:39:32.216Z,69.86
2024-02-02T01:42:36.814Z,69.90
2024-02-02T01:45:41.500Z,70.13
2024-02-02T01:48:46.017Z,69.70
2024-02-02T01:51:50.436Z,69.80
2024-02-02T01:54:55.167Z,69.92
2024-02-02T01:57:59.492Z,70.10
2024-02-02T02:01:03.866Z,69.81
2024-02-02T02:04:08.823Z,70.18
2024-02-02T02:07:13.185Z,70.23
2024-02-02T02:10:17.596Z,70.33
2024-02-02T02:13:22.313Z,70.45
2024-02-02T02:16:26.656Z,70.24
2024-02-02T02:19:32.187Z,70.36
2024-02-02T02:22:36.539Z,70.45
2024-02-02T02:25:40.961Z,70.44
2024-02-02T02:28:46.668Z,70.49
2024-02-02T02:31:55.671Z,70.42
2024-02-02T02:35:00.077Z,70.56
2024-02-02T02:38:04.817Z,70.43
2024-02-02T02:41:09.021Z,70.25
2024-02-02T02:44:16.424Z,70.17
2024-02-02T02:47:21.237Z,70.04
2024-02-02T02:50:25.531Z,70.07
2024-02-02T02:53:29.802Z,70.05
2024-02-02T02:56:33.961Z,69.92
2024-02-02T02:59:38.244Z,69.78
2024-02-02T03:02:42.672Z,69.47
2024-02-02T03:05:47.030Z,69.59
2024-02-02T03:08:51.459Z,69.39
2024-02-02T03:11:56.109Z,69.48
2024-02-02T03:15:00.551Z,69.46
2024-02-02T03:18:05.241Z,69.42
2024-02-02T03:21:09.755Z,69.80
2024-02-02T03:24:14.313Z,69.56
2024-02-02T03:27:21.175Z,69.56
2024-02-02T03:30:28.551Z,69.39
2024-02-02T03:33:34.158Z,69.54
2024-02-02T03:36:38.668Z,69.30
2024-02-02T03:39:43.965Z,69.31
2024-02-02T03:42:48.495Z,69.37
2024-02-02T03:45:52.817Z,69.19
2024-02-02T03:48:59.334Z,69.03
2024-02-02T03:52:08.944Z,68.86
2024-02-02T03:55:13.464Z,69.02
2024-02-02T03:58:18.102Z,69.05
2024-02-02T04:01:22.449Z,68.94
2024-02-02T04:04:26.689Z,68.65
2024-02-02T04:07:31.077Z,68.52
2024-02-02T04:10:35.399Z,68.68
2024-02-02T04:13:39.731Z,68.54
2024-02-02T04:16:44.041Z,68.58
2024-02-02T04:19:48.672Z,68.36
2024-02-02T04:22:52.997Z,68.31
2024-02-02T04:25:57.322Z,68.25
2024-02-02T04:29:01.639Z,68.39
2024-02-02T04:32:06.990Z,68.43
2024-02-02T04:35:11.409Z,68.43
2024-02-02T04:38:19.457Z,68.23
2024-02-02T04:41:23.745Z,68.22
2024-02-02T04:44:28.367Z,68.27
2024-02-02T04:47:32.514Z,68.46
2024-02-02T04:50:36.815Z,68.49
2024-02-02T04:53:41.136Z,68.51
2024-02-02T04:56:45.469Z,68.52
2024-02-02T04:59:49.680Z,68.37
2024-02-02T05:02:53.948Z,68.32
2024-02-02T05:05:58.338Z,68.32
2024-02-02T05:09:02.865Z,68.32
2024-02-02T05:12:07.912Z,68.47
2024-02-02T05:15:12.227Z,68.37
2024-02-02T05:18:16.723Z,68.35
2024-02-02T05:21:21.092Z,68.35
2024-02-02T05:24:38.224Z,68.52
2024-02-02T05:27:49.478Z,68.37
2024-02-02T05:30:53.766Z,68.27
2024-02-02T05:33:58.152Z,68.21
2024-02-02T05:37:02.969Z,68.28
2024-02-02T05:40:09.021Z,68.23
2024-02-02T05:43:13.850Z,68.38
2024-02-02T05:46:17.923Z,68.43
2024-02-02T05:49:22.877Z,68.51
2024-02-02T05:52:27.167Z,68.55
2024-02-02T05:55:31.458Z,68.38
2024-02-02T05:58:35.782Z,68.46
2024-02-02T06:01:40.149Z,68.48
2024-02-02T06:04:44.430Z,68.21
2024-02-02T06:07:49.269Z,68.25
2024-02-02T06:10:53.400Z,68.40
2024-02-02T06:13:58.938Z,68.56
2024-02-02T06:17:04.285Z,68.51
2024-02-02T06:20:09.813Z,68.45
2024-02-02T06:23:14.173Z,68.47
2024-02-02T06:26:18.607Z,68.44
2024-02-02T06:29:22.935Z,68.32
2024-02-02T06:32:28.146Z,68.24
2024-02-02T06:35:32.574Z,68.30
2024-02-02T06:38:36.799Z,68.02
2024-02-02T06:41:40.941Z,68.25
2024-02-02T06:44:45.237Z,68.05
2024-02-02T06:47:49.490Z,67.89
2024-02-02T06:50:54.376Z,67.73
2024-02-02T06:53:58.747Z,67.89
2024-02-02T06:57:04.312Z,67.92
2024-02-02T07:00:18.294Z,67.70
2024-02-02T07:03:22.813Z,67.75
2024-02-02T07:06:27.729Z,67.69
2024-02-02T07:09:32.983Z,67.62
2024-02-02T07:12:55.782Z,67.72
2024-02-02T07:16:00.464Z,67.37
2024-02-02T07:19:05.502Z,67.37
2024-02-02T07:22:42.738Z,67.04
2024-02-02T07:25:48.613Z,66.81
2024-02-02T07:28:52.969Z,66.41
2024-02-02T07:31:57.275Z,66.58
2024-02-02T07:35:03.426Z,66.44
2024-02-02T07:38:09.447Z,66.48
2024-02-02T07:41:28.163Z,66.12
2024-02-02T07:44:32.479Z,65.82
2024-02-02T07:47:36.722Z,65.72
2024-02-02T07:50:41.018Z,65.68
2024-02-02T07:53:49.544Z,65.80
2024-02-02T07:56:53.961Z,65.51
2024-02-02T07:59:58.515Z,65.42
2024-02-02T08:03:03.164Z,64.63
2024-02-02T08:06:08.510Z,64.36
2024-02-02T08:09:13.018Z,64.37
2024-02-02T08:12:17.269Z,64.15
2024-02-02T08:15:21.673Z,64.25
2024-02-02T08:18:26.388Z,63.96
2024-02-02T08:21:31.228Z,64.00
2024-02-02T08:24:35.614Z,63.79
2024-02-02T08:27:39.957Z,63.78
2024-02-02T08:30:44.211Z,63.76
2024-02-02T08:33:48.607Z,63.68
2024-02-02T08:36:53.756Z,63.14
2024-02-02T08:40:00.730Z,63.52
2024-02-02T08:43:06.182Z,63.77
2024-02-02T08:46:12.537Z,63.20
2024-02-02T08:49:55.140Z,63.17
2024-02-02T08:53:00.113Z,63.08
2024-02-02T08:56:11.107Z,63.20
2024-02-02T08:59:34.385Z,62.98
2024-02-02T09:02:52.679Z,63.31
2024-02-02T09:05:59.976Z,63.30
2024-02-02T09:09:07.955Z,63.56
2024-02-02T09:12:12.370Z,63.72
2024-02-02T09:15:19.485Z,63.73
2024-02-02T09:18:54.690Z,63.53
2024-02-02T09:22:02.761Z,63.67
2024-02-02T09:25:11.328Z,63.80
2024-02-02T09:28:24.953Z,64.11
2024-02-02T09:31:36.721Z,64.25
2024-02-02T09:34:42.220Z,64.16
2024-02-02T09:37:51.381Z,63.43
2024-02-02T09:41:04.774Z,63.51
2024-02-02T09:44:24.080Z,64.01
2024-02-02T09:47:31.421Z,63.57
2024-02-02T09:50:44.960Z,63.91
2024-02-02T09:54:41.157Z,63.83
2024-02-02T09:57:53.447Z,64.04
2024-02-02T10:01:29.063Z,64.28
2024-02-02T10:04:52.398Z,64.41
2024-02-02T10:08:05.520Z,63.93
2024-02-02T10:11:30.700Z,63.76
2024-02-02T10:14:56.557Z,63.53
2024-02-02T10:18:24.306Z,63.83
2024-02-02T10:21:41.621Z,63.59
2024-02-02T10:25:16.066Z,63.16
2024-02-02T10:28:49.876Z,62.85
2024-02-02T10:32:19.695Z,63.24
2024-02-02T10:35:46.861Z,63.39
2024-02-02T10:39:10.469Z,63.38
2024-02-02T10:42:36.788Z,63.74
2024-02-02T10:45:58.290Z,63.34
2024-02-02T10:50:01.564Z,63.34
2024-02-02T10:53:08.645Z,63.51
2024-02-02T10:56:47.146Z,63.48
2024-02-02T10:59:54.308Z,63.54
2024-02-02T11:03:16.883Z,63.51
2024-02-02T11:06:30.416Z,63.15
2024-02-02T11:09:46.942Z,63.06
2024-02-02T11:12:51.145Z,63.02
2024-02-02T11:16:07.486Z,63.16
2024-02-02T11:19:35.521Z,63.47
2024-02-02T11:22:50.988Z,63.83
2024-02-02T11:26:05.354Z,63.34
2024-02-02T11:29:21.138Z,63.75
2024-02-02T11:32:56.213Z,63.44
2024-02-02T11:36:06.951Z,63.43
2024-02-02T11:39:52.454Z,63.43
2024-02-02T11:43:00.215Z,63.48
2024-02-02T11:46:07.850Z,63.24
2024-02-02T11:49:22.493Z,63.04
2024-02-02T11:52:32.946Z,63.55
2024-02-02T11:55:42.081Z,62.96
2024-02-02T11:58:52.703Z,63.39
2024-02-02T12:02:06.430Z,63.45
2024-02-02T12:05:25.759Z,63.38
2024-02-02T12:08:37.402Z,63.46
2024-02-02T12:11:47.411Z,63.68
2024-02-02T12:14:54.258Z,63.84
2024-02-02T12:18:02.573Z,63.47
2024-02-02T12:21:16.924Z,63.52
2024-02-02T12:24:23.568Z,63.64
2024-02-02T12:27:28.032Z,63.51
2024-02-02T12:30:32.701Z,63.60
2024-02-02T12:33:37.394Z,63.45
2024-02-02T12:36:41.891Z,63.45
2024-02-02T12:39:46.776Z,63.72
2024-02-02T12:42:51.727Z,62.67
2024-02-02T12:45:56.024Z,63.12
2024-02-02T12:49:00.339Z,62.73
2024-02-02T12:52:07.828Z,62.68
2024-02-02T12:55:13.614Z,62.84
2024-02-02T12:58:18.028Z,62.99
2024-02-02T13:01:23.029Z,62.90
2024-02-02T13:04:27.854Z,62.74
2024-02-02T13:07:33.516Z,62.57
2024-02-02T13:10:51.504Z,61.93
2024-02-02T13:14:05.623Z,61.86
2024-02-02T13:17:17.318Z,61.69
2024-02-02T13:20:22.584Z,61.67
2024-02-02T13:23:30.428Z,62.06
2024-02-02T13:26:39.825Z,62.12
2024-02-02T13:29:49.509Z,62.19
2024-02-02T13:32:54.672Z,61.85
2024-02-02T13:36:01.134Z,62.26
2024-02-02T13:39:05.940Z,62.77
2024-02-02T13:42:14.041Z,62.49
2024-02-02T13:45:18.739Z,62.74
2024-02-02T13:48:26.906Z,62.59
2024-02-02T13:51:35.016Z,62.75
2024-02-02T13:54:41.331Z,62.95
2024-02-02T13:57:45.671Z,62.85
2024-02-02T14:00:49.977Z,63.13
2024-02-02T14:03:55.787Z,62.88
2024-02-02T14:07:00.794Z,63.30
2024-02-02T14:10:07.357Z,63.46
2024-02-02T14:13:20.337Z,63.62
2024-02-02T14:16:27.869Z,63.48
2024-02-02T14:19:32.857Z,63.79
2024-02-02T14:22:37.437Z,63.65
2024-02-02T14:25:41.931Z,63.68
2024-02-02T14:28:46.231Z,63.68
2024-02-02T14:31:59.228Z,63.63
2024-02-02T14:35:05.866Z,63.45
2024-02-02T14:38:11.079Z,63.32
2024-02-02T14:41:16.013Z,63.51
2024-02-02T14:44:20.447Z,63.40
2024-02-02T14:47:25.174Z,63.47
2024-02-02T14:50:29.502Z,63.14
2024-02-02T14:53:34.230Z,63.65
2024-02-02T14:56:38.956Z,63.04
2024-02-02T14:59:43.486Z,63.09
2024-02-02T15:02:49.863Z,63.11
2024-02-02T15:05:55.252Z,63.13
2024-02-02T15:09:01.112Z,63.10
2024-02-02T15:12:07.582Z,63.02
2024-02-02T15:15:12.175Z,63.30
2024-02-02T15:18:16.670Z,63.32
2024-02-02T15:21:20.936Z,63.32
2024-02-02T15:24:25.195Z,63.50
2024-02-02T15:27:29.583Z,63.41
2024-02-02T15:30:33.930Z,63.64
2024-02-02T15:33:38.869Z,63.85
2024-02-02T15:36:43.344Z,63.91
2024-02-02T15:39:49.605Z,64.22
2024-02-02T15:42:53.764Z,64.35
2024-02-02T15:45:57.908Z,64.34
2024-02-02T15:49:02.257Z,64.38
2024-02-02T15:52:06.940Z,64.57
2024-02-02T15:55:11.769Z,64.58
2024-02-02T15:58:16.280Z,64.75
2024-02-02T16:01:20.856Z,64.89
2024-02-02T16:04:25.140Z,64.89
2024-02-02T16:07:29.493Z,64.83
2024-02-02T16:10:34.185Z,65.11
2024-02-02T16:13:51.512Z,65.06
2024-02-02T16:16:56.241Z,65.23
2024-02-02T16:20:00.618Z,65.36
2024-02-02T16:23:05.407Z,65.45
2024-02-02T16:26:11.081Z,65.33
2024-02-02T16:29:15.351Z,65.34
2024-02-02T16:32:19.827Z,65.41
2024-02-02T16:35:24.246Z,65.78
2024-02-02T16:38:29.274Z,65.70
2024-02-02T16:41:33.525Z,65.64
2024-02-02T16:44:38.031Z,65.82
2024-02-02T16:47:42.281Z,66.18
2024-02-02T16:50:47.109Z,66.29
2024-02-02T16:53:51.404Z,66.25
2024-02-02T16:56:55.575Z,66.57
2024-02-02T17:00:00.244Z,66.89
2024-02-02T17:03:05.598Z,67.00
2024-02-02T17:06:11.374Z,67.07
2024-02-02T17:09:16.242Z,67.40
2024-02-02T17:12:21.755Z,67.48
2024-02-02T17:15:27.105Z,67.62
2024-02-02T17:18:33.450Z,67.60
2024-02-02T17:21:37.945Z,68.10
2024-02-02T17:24:42.518Z,68.24
2024-02-02T17:27:47.023Z,68.46
2024-02-02T17:30:53.541Z,68.85
2024-02-02T17:33:57.978Z,69.13
2024-02-02T17:37:02.469Z,69.38
2024-02-02T17:40:07.508Z,69.33
2024-02-02T17:43:12.751Z,69.42
2024-02-02T17:46:20.715Z,69.68
2024-02-02T17:49:26.568Z,69.61
2024-02-02T17:52:34.089Z,69.66
2024-02-02T17:55:38.343Z,69.92
2024-02-02T17:58:42.457Z,70.00
2024-02-02T18:01:46.737Z,69.87
2024-02-02T18:04:51.306Z,70.08
2024-02-02T18:07:55.810Z,69.89
2024-02-02T18:11:00.882Z,70.07
2024-02-02T18:14:05.089Z,70.26
2024-02-02T18:17:09.620Z,70.55
2024-02-02T18:20:13.954Z,70.73
2024-02-02T18:23:18.351Z,71.07
2024-02-02T18:26:23.618Z,71.38
2024-02-02T18:29:27.840Z,71.75
2024-02-02T18:32:32.319Z,71.70
2024-02-02T18:35:36.686Z,71.99
2024-02-02T18:38:41.948Z,72.10
2024-02-02T18:41:46.261Z,72.44
2024-02-02T18:44:50.478Z,72.53
2024-02-02T18:47:54.888Z,72.70
2024-02-02T18:50:59.122Z,72.93
2024-02-02T18:54:03.513Z,73.27
2024-02-02T18:57:07.922Z,73.22
2024-02-02T19:00:13.617Z,73.47
2024-02-02T19:03:18.171Z,73.45
2024-02-02T19:06:23.085Z,73.63
2024-02-02T19:09:29.582Z,73.95
2024-02-02T19:12:33.963Z,73.91
2024-02-02T19:15:38.373Z,74.22
2024-02-02T19:18:42.690Z,74.25
2024-02-02T19:21:47.722Z,74.57
2024-02-02T19:24:53.254Z,74.74
2024-02-02T19:27:57.662Z,74.80
2024-02-02T19:31:02.082Z,75.17
2024-02-02T19:34:07.775Z,75.08
2024-02-02T19:37:12.195Z,75.24
2024-02-02T19:40:17.307Z,74.99
2024-02-02T19:43:21.461Z,75.34
2024-02-02T19:46:27.702Z,75.09
2024-02-02T19:49:34.119Z,75.27
2024-02-02T19:52:38.492Z,75.04
2024-02-02T19:55:42.812Z,75.16
2024-02-02T19:58:48.371Z,75.10
2024-02-02T20:01:52.771Z,75.23
2024-02-02T20:04:57.388Z,75.08
2024-02-02T20:08:02.674Z,75.00
2024-02-02T20:11:14.923Z,75.02
2024-02-02T20:14:19.194Z,75.03
2024-02-02T20:17:23.626Z,75.15
2024-02-02T20:20:29.723Z,75.20
2024-02-02T20:23:35.508Z,75.36
2024-02-02T20:26:39.880Z,75.38
2024-02-02T20:29:44.426Z,75.56
2024-02-02T20:32:48.633Z,75.64
2024-02-02T20:35:52.948Z,75.68
2024-02-02T20:38:57.205Z,75.76
2024-02-02T20:42:01.671Z,75.56
2024-02-02T20:45:06.427Z,75.65
2024-02-02T20:48:10.628Z,75.64
2024-02-02T20:51:17.238Z,75.73
2024-02-02T20:54:22.093Z,76.11
2024-02-02T20:57:26.394Z,75.94
2024-02-02T21:00:31.320Z,76.14
2024-02-02T21:03:35.705Z,75.92
2024-02-02T21:06:43.724Z,76.21
2024-02-02T21:09:48.088Z,76.34
2024-02-02T21:12:52.648Z,76.37
2024-02-02T21:15:56.760Z,76.48
2024-02-02T21:19:05.738Z,76.52
2024-02-02T21:22:10.308Z,76.60
2024-02-02T21:25:14.720Z,76.55
2024-02-02T21:28:19.443Z,76.75
2024-02-02T21:31:23.658Z,76.65
2024-02-02T21:34:27.826Z,76.76
2024-02-02T21:37:32.305Z,76.86
2024-02-02T21:40:36.859Z,76.86
2024-02-02T21:43:41.088Z,76.96
2024-02-02T21:46:45.170Z,76.99
2024-02-02T21:49:49.446Z,77.25
2024-02-02T21:52:53.816Z,77.02
2024-02-02T21:55:58.047Z,77.41
2024-02-02T21:59:05.341Z,77.50
2024-02-02T22:02:09.576Z,77.47
2024-02-02T22:05:13.948Z,77.42
2024-02-02T22:08:18.209Z,77.65
2024-02-02T22:11:22.548Z,77.70
2024-02-02T22:14:27.044Z,77.86
2024-02-02T22:17:32.750Z,78.03
2024-02-02T22:20:37.236Z,78.00
2024-02-02T22:23:41.452Z,78.22
2024-02-02T22:26:45.673Z,78.16
2024-02-02T22:29:50.726Z,78.30
2024-02-02T22:32:54.969Z,78.38
2024-02-02T22:35:59.259Z,78.56
2024-02-02T22:39:04.764Z,78.64
2024-02-02T22:42:09.157Z,78.69
2024-02-02T22:45:13.510Z,78.70
2024-02-02T22:48:18.026Z,78.97
2024-02-02T22:51:22.620Z,78.71
2024-02-02T22:54:27.526Z,78.89
2024-02-02T22:57:31.855Z,78.92
2024-02-02T23:00:36.230Z,79.04
2024-02-02T23:03:40.747Z,79.07
2024-02-02T23:06:45.466Z,79.19
2024-02-02T23:09:49.996Z,79.16
2024-02-02T23:12:55.038Z,79.27
2024-02-02T23:16:00.021Z,79.40
2024-02-02T23:19:04.688Z,79.24
2024-02-02T23:22:10.864Z,79.09
2024-02-02T23:25:15.914Z,79.25
2024-02-02T23:28:20.230Z,79.20
2024-02-02T23:31:24.548Z,79.21
2024-02-02T23:34:28.936Z,79.26
2024-02-02T23:37:34.709Z,79.32
2024-02-02T23:40:38.917Z,79.44
2024-02-02T23:43:43.176Z,79.49
2024-02-02T23:46:47.503Z,79.50
2024-02-02T23:49:51.776Z,79.34
2024-02-02T23:52:56.040Z,79.39
2024-02-02T23:56:00.244Z,79.36
2024-02-02T23:59:04.586Z,79.34
